Latest Coastal Weather Observations for Mandurah

IDW60701

Issued at 4:23 am WST Sunday 26 February 2017 (issued every 10 minutes, with the page automatically refreshed every 10 minutes)

About coastal observations | Map of coastal stations | Coastal observations for WA | Marine services | Other Formats
Station Details ID: 009977 Name: MANDURAH Lat: -32.52 Lon: 115.71 Height: 3.0 m
Data from the previous 72 hours. | See also: Recent months at Mandurah
Date/Time
WST
Temp
°C
Wind Pressure Rain since
9am
mm
Weather Cloud Vis
km
Sea
Height
m
Swell
Dir  Spd
kts
Gust
kts
hPa Trend Height
m
Period
s
Dir
26/04:00am 20.6 SSE 6 9 1010.7 - 0.0 - - - - - - -
26/03:30am 20.6 S 6 8 1010.9 - 0.0 - - - - - - -
26/03:00am 20.8 SSE 7 9 1010.9 - 0.0 - - - - - - -
26/02:30am 20.8 S 8 11 1010.8 - 0.0 - - - - - - -
26/02:00am 20.9 S 7 10 1011.0 - 0.0 - - - - - - -
26/01:30am 21.0 S 8 11 1011.0 - 0.0 - - - - - - -
26/01:00am 21.3 S 9 14 1011.2 - 0.0 - - - - - - -
26/12:30am 21.5 S 10 15 1011.1 - 0.0 - - - - - - -
26/12:00am 22.0 S 8 15 1011.3 - 0.0 - - - - - - -
 
Date/Time
WST
Temp
°C
Wind Pressure Rain since
9am
mm
Weather Cloud Vis
km
Sea
Height
m
Swell
Dir  Spd
kts
Gust
kts
hPa Trend Height
m
Period
s
Dir
25/11:30pm 22.4 SSW 8 13 1011.4 - 0.0 - - - - - - -
25/11:00pm 22.6 SSW 6 9 1011.6 - 0.0 - - - - - - -
25/10:30pm 23.5 S 4 6 1011.8 - 0.0 - - - - - - -
25/10:00pm 23.8 SSW 5 8 1011.8 - 0.0 - - - - - - -
25/09:30pm 24.8 S 4 8 1011.8 - 0.0 - - - - - - -
25/09:00pm 25.6 SSW 6 9 1011.6 - 0.0 - - - - - - -
25/08:30pm 26.6 S 7 10 1011.6 - 0.0 - - - - - - -
25/08:00pm 27.3 S 6 10 1011.4 - 0.0 - - - - - - -
25/07:30pm 28.0 S 6 9 1011.1 - 0.0 - - - - - - -
25/07:00pm 28.6 S 5 8 1011.0 - 0.0 - - - - - - -
25/06:30pm 29.6 S 6 10 1011.0 - 0.0 - - - - - - -
25/06:00pm 30.4 SW 6 9 1010.9 - 0.0 - - - - - - -
25/05:30pm 30.9 SW 9 13 1010.8 - 0.0 - - - - - - -
25/05:00pm 31.5 SW 7 10 1011.1 - 0.0 - - - - - - -
25/04:30pm 31.7 SW 8 11 1011.4 - 0.0 - - - - - - -
25/04:00pm 30.0 SW 11 16 1011.6 - 0.0 - - - - - - -
25/03:30pm 30.6 SW 11 15 1011.8 - 0.0 - - - - - - -
25/03:00pm 31.7 WSW 9 12 1012.0 - 0.0 - - - - - - -
25/02:30pm 33.3 WSW 8 11 1012.3 - 0.0 - - - - - - -
25/02:00pm 32.6 WSW 10 13 1012.8 - 0.0 - - - - - - -
25/01:30pm 33.3 WNW 7 8 1013.2 - 0.0 - - - - - - -
25/01:00pm 33.4 WNW 6 7 1013.5 - 0.0 - - - - - - -
25/12:30pm 32.3 WNW 6 7 1013.7 - 0.0 - - - - - - -
25/12:00pm 30.7 NW 5 6 1014.0 - 0.0 - - - - - - -
25/11:30am 31.9 N 7 9 1014.4 - 0.0 - - - - - - -
25/11:00am 31.0 NNE 7 10 1014.7 - 0.0 - - - - - - -
25/10:30am 30.3 NNE 8 10 1015.0 - 0.0 - - - - - - -
25/10:00am 29.5 NNE 8 12 1015.3 - 0.0 - - - - - - -
25/09:30am 28.8 NNE 11 15 1015.4 - 0.0 - - - - - - -
25/09:00am 28.7 NNE 7 10 1015.6 - 0.0 - - - - - - -
25/08:30am 27.2 NNE 7 9 1015.7 - 0.0 - - - - - - -
25/08:00am 25.3 NE 5 6 1015.7 - 0.0 - - - - - - -
25/07:30am 24.6 ENE 2 3 1015.7 - 0.0 - - - - - - -
25/07:00am 23.5 ENE 1 2 1015.6 - 0.0 - - - - - - -
25/06:30am 23.0 ENE 2 4 1015.4 - 0.0 - - - - - - -
25/06:00am 23.5 NE 4 7 1015.1 - 0.0 - - - - - - -
25/05:30am 23.9 NE 4 6 1015.1 - 0.0 - - - - - - -
25/05:00am 23.6 ENE 1 3 1014.8 - 0.0 - - - - - - -
25/04:30am 24.8 ENE 5 8 1014.7 - 0.0 - - - - - - -
25/04:00am 23.9 NE 3 5 1014.6 - 0.0 - - - - - - -
25/03:30am 24.5 ENE 5 9 1014.8 - 0.0 - - - - - - -
25/03:00am 24.8 ENE 5 9 1015.0 - 0.0 - - - - - - -
25/02:30am 24.7 E 5 9 1015.1 - 0.0 - - - - - - -
25/02:00am 24.6 E 5 9 1015.3 - 0.0 - - - - - - -
25/01:30am 24.8 ESE 6 9 1015.7 - 0.0 - - - - - - -
25/01:00am 24.1 SE 4 5 1016.0 - 0.0 - - - - - - -
25/12:30am 24.2 SE 4 6 1016.4 - 0.0 - - - - - - -
25/12:00am 24.9 SSE 5 6 1016.7 - 0.0 - - - - - - -
 
Date/Time
WST
Temp
°C
Wind Pressure Rain since
9am
mm
Weather Cloud Vis
km
Sea
Height
m
Swell
Dir  Spd
kts
Gust
kts
hPa Trend Height
m
Period
s
Dir
24/11:30pm 25.4 SSE 4 5 1016.9 - 0.0 - - - - - - -
24/11:00pm 25.4 SSE 6 8 1017.1 - 0.0 - - - - - - -
24/10:30pm 26.2 SSE 6 7 1017.3 - 0.0 - - - - - - -
24/10:00pm 26.5 SSE 5 8 1017.5 - 0.0 - - - - - - -
24/09:30pm 26.4 SSE 7 10 1017.7 - 0.0 - - - - - - -
24/09:00pm 27.0 SSE 6 9 1017.8 - 0.0 - - - - - - -
24/08:30pm 27.4 SSE 6 9 1017.5 - 0.0 - - - - - - -
24/08:00pm 28.3 SSE 6 9 1017.2 - 0.0 - - - - - - -
24/07:30pm 29.0 SSE 5 7 1016.8 - 0.0 - - - - - - -
24/07:00pm 30.0 SSE 5 8 1016.5 - 0.0 - - - - - - -
24/06:30pm 31.2 S 5 8 1016.4 - 0.0 - - - - - - -
24/06:00pm 31.9 SSW 5 6 1016.3 - 0.0 - - - - - - -
24/05:30pm 31.9 SW 3 6 1016.4 - 0.0 - - - - - - -
24/05:00pm 31.6 SW 8 11 1016.6 - 0.0 - - - - - - -
24/04:30pm 32.5 WSW 8 11 1016.8 - 0.0 - - - - - - -
24/04:00pm 33.3 W 6 8 1016.8 - 0.0 - - - - - - -
24/03:30pm 33.9 WSW 7 10 1017.0 - 0.0 - - - - - - -
24/03:00pm 33.1 WSW 7 10 1017.3 - 0.0 - - - - - - -
24/02:30pm 33.0 W 6 8 1017.7 - 0.0 - - - - - - -
24/02:00pm 32.5 WNW 7 9 1018.1 - 0.0 - - - - - - -
24/01:30pm 32.7 WNW 4 5 1018.5 - 0.0 - - - - - - -
24/01:00pm 31.7 NW 5 7 1018.8 - 0.0 - - - - - - -
24/12:30pm 31.7 NNE 6 9 1019.1 - 0.0 - - - - - - -
24/12:00pm 32.3 NE 8 11 1019.4 - 0.0 - - - - - - -
24/11:30am 31.6 NE 7 11 1019.8 - 0.0 - - - - - - -
24/11:00am 31.2 NE 8 12 1020.2 - 0.0 - - - - - - -
24/10:30am 29.9 NE 11 14 1020.5 - 0.0 - - - - - - -
24/10:00am 28.4 NE 11 15 1020.7 - 0.0 - - - - - - -
24/09:30am 28.3 ENE 6 9 1021.1 - 0.0 - - - - - - -
24/09:00am 26.6 ENE 7 12 1020.9 - 0.0 - - - - - - -
24/08:30am 24.5 E 4 7 1021.1 - 0.0 - - - - - - -
24/08:00am 22.7 E 6 9 1021.1 - 0.0 - - - - - - -
24/07:30am 21.5 E 6 9 1021.1 - 0.0 - - - - - - -
24/07:00am 20.8 ESE 6 9 1021.1 - 0.0 - - - - - - -
24/06:30am 20.3 E 6 11 1021.0 - 0.0 - - - - - - -
24/06:00am 20.1 E 3 5 1020.8 - 0.0 - - - - - - -
24/05:30am 20.6 ESE 5 9 1020.4 - 0.0 - - - - - - -
24/05:00am 20.4 ESE 5 8 1020.2 - 0.0 - - - - - - -
24/04:30am 20.5 ESE 7 11 1019.8 - 0.0 - - - - - - -
24/04:00am 20.6 ESE 7 11 1019.9 - 0.0 - - - - - - -
24/03:30am 20.3 ESE 6 8 1019.9 - 0.0 - - - - - - -
24/03:00am 20.4 ESE 4 7 1020.1 - 0.0 - - - - - - -
24/02:30am 20.0 ESE 4 5 1020.2 - 0.0 - - - - - - -
24/02:00am 20.3 SE 5 7 1020.3 - 0.0 - - - - - - -
24/01:30am 20.3 SE 4 5 1020.2 - 0.0 - - - - - - -
24/01:00am 20.9 SE 4 6 1020.3 - 0.0 - - - - - - -
24/12:30am 20.6 SSE 5 7 1020.4 - 0.0 - - - - - - -
24/12:00am 20.5 SSE 6 8 1020.4 - 0.0 - - - - - - -
 
Date/Time
WST
Temp
°C
Wind Pressure Rain since
9am
mm
Weather Cloud Vis
km
Sea
Height
m
Swell
Dir  Spd
kts
Gust
kts
hPa Trend Height
m
Period
s
Dir
23/11:30pm 20.7 SSE 5 7 1020.7 - 0.0 - - - - - - -
23/11:00pm 21.0 SSE 6 9 1020.8 - 0.0 - - - - - - -
23/10:30pm 21.2 SSE 6 9 1021.0 - 0.0 - - - - - - -
23/10:00pm 21.5 S 5 8 1021.1 - 0.0 - - - - - - -
23/09:30pm 21.5 S 4 6 1021.4 - 0.0 - - - - - - -
23/09:00pm 21.7 S 5 8 1021.3 - 0.0 - - - - - - -
23/08:30pm 21.6 S 7 9 1021.0 - 0.0 - - - - - - -
23/08:00pm 21.6 S 7 12 1020.8 - 0.0 - - - - - - -
23/07:30pm 22.0 SSW 8 12 1020.6 - 0.0 - - - - - - -
23/07:00pm 22.9 SSW 7 10 1020.1 - 0.0 - - - - - - -
23/06:30pm 23.8 S 8 13 1019.7 - 0.0 - - - - - - -
23/06:00pm 24.6 S 10 14 1019.3 - 0.0 - - - - - - -
23/05:30pm 25.3 S 9 13 1019.2 - 0.0 - - - - - - -
23/05:00pm 25.2 S 10 15 1019.2 - 0.0 - - - - - - -
23/04:30pm 25.8 SSW 9 13 1019.2 - 0.0 - - - - - - -
23/04:00pm 26.7 SSW 9 14 1019.3 - 0.0 - - - - - - -
23/03:30pm 27.1 SW 8 13 1019.4 - 0.0 - - - - - - -
23/03:00pm 27.1 SW 9 14 1019.6 - 0.0 - - - - - - -
23/02:30pm 26.7 WSW 10 15 1019.8 - 0.0 - - - - - - -
23/02:00pm 27.0 WSW 10 14 1020.1 - 0.0 - - - - - - -
23/01:30pm 26.6 WSW 10 13 1020.3 - 0.0 - - - - - - -
23/01:00pm 26.3 WSW 10 14 1020.6 - 0.0 - - - - - - -
23/12:30pm 26.6 WSW 9 12 1020.7 - 0.0 - - - - - - -
23/12:00pm 26.5 WSW 8 12 1021.1 - 0.0 - - - - - - -
23/11:30am 26.5 WSW 8 11 1021.3 - 0.0 - - - - - - -
23/11:00am 25.8 W 6 8 1021.7 - 0.0 - - - - - - -
23/10:30am 24.6 W 5 7 1021.9 - 0.0 - - - - - - -
23/10:00am 24.5 NNW 2 3 1022.0 - 0.0 - - - - - - -
23/09:30am 23.4 E 4 7 1022.0 - 0.0 - - - - - - -
23/09:00am 21.2 E 4 8 1022.1 - 0.0 - - - - - - -
23/08:30am 19.6 E 3 6 1022.1 - 0.0 - - - - - - -
23/08:00am 18.2 ESE 4 8 1022.1 - 0.0 - - - - - - -
23/07:30am 16.9 SE 6 8 1021.9 - 0.0 - - - - - - -
23/07:00am 16.2 SE 9 11 1021.8 - 0.0 - - - - - - -
23/06:30am 15.8 SSE 7 9 1021.6 - 0.0 - - - - - - -
23/06:00am 15.8 SSE 7 9 1021.4 - 0.0 - - - - - - -
23/05:30am 15.7 SSE 7 9 1021.2 - 0.0 - - - - - - -
23/05:00am 15.8 SSE 6 8 1021.1 - 0.0 - - - - - - -
23/04:30am 15.9 SSE 5 7 1020.9 - 0.0 - - - - - - -

Other Formats:

Comma delimited format used in spreadsheet applications
http://www.bom.gov.au/fwo/IDW60701/IDW60701.94605.axf

JavaScript Object Notation format (JSON) in row-major order
http://www.bom.gov.au/fwo/IDW60701/IDW60701.94605.json